Time;durP1;ratioP1;P1;durP2;ratioP2;P2;SDS_P1;SDS_P2;PMS_P1;PMS_P2;Temp;Humidity;BMP_temperature;BMP_pressure;BME280_temperature;BME280_humidity;BME280_pressure;Samples;Min_cycle;Max_cycle;Signal;HPM_P1;HPM_P2
2022/07/28 00:00:18;;;;;;;1.55;0.68;;;;;;;19.14;40.02;101332.41;5223468;28;20124;-78
2022/07/28 00:02:49;;;;;;;0.22;0.22;;;;;;;19.13;40.08;101333.34;5215978;22;20041;-78
2022/07/28 00:08:58;;;;;;;0.32;0.32;;;;;;;19.09;40.93;101333.63;5195762;28;20569;-77
2022/07/28 00:11:29;;;;;;;0.40;0.40;;;;;;;19.06;40.92;101334.63;5193823;28;20041;-77
2022/07/28 00:13:59;;;;;;;0.40;0.40;;;;;;;19.06;41.02;101331.13;5187396;28;20049;-77
2022/07/28 00:16:30;;;;;;;0.30;0.30;;;;;;;19.08;40.67;101323.91;5153191;28;20052;-77
2022/07/28 00:19:00;;;;;;;0.38;0.38;;;;;;;19.03;40.95;101325.00;5201950;28;20041;-77
2022/07/28 00:21:31;;;;;;;0.25;0.25;;;;;;;19.03;40.91;101325.00;5170289;28;20392;-77
2022/07/28 00:24:01;;;;;;;0.30;0.30;;;;;;;19.03;41.14;101325.00;5189223;28;20144;-77
2022/07/28 00:26:32;;;;;;;0.65;0.65;;;;;;;19.03;40.76;101319.69;5202173;28;20327;-77
2022/07/28 00:29:04;;;;;;;0.38;0.38;;;;;;;19.03;41.10;101318.84;5186757;28;20017;-77
2022/07/28 00:31:34;;;;;;;0.30;0.30;;;;;;;18.97;42.67;101319.16;5169366;28;20041;-77
2022/07/28 00:34:05;;;;;;;0.30;0.30;;;;;;;18.97;41.35;101308.50;5205448;28;20029;-77
2022/07/28 00:36:35;;;;;;;0.30;0.30;;;;;;;18.97;41.42;101305.84;5168934;28;20482;-78
2022/07/28 00:39:08;;;;;;;;;;;;;;;18.95;41.61;101307.75;5186113;28;20025;-77
2022/07/28 00:41:39;;;;;;;1.55;1.20;;;;;;;18.92;41.31;101294.59;5188499;28;19920;-77
2022/07/28 00:44:10;;;;;;;0.30;0.30;;;;;;;18.90;41.70;101307.09;5155568;28;20112;-77
2022/07/28 00:46:40;;;;;;;0.20;0.20;;;;;;;18.87;41.65;101306.34;5184434;28;20038;-77
2022/07/28 00:49:13;;;;;;;0.30;0.30;;;;;;;18.87;41.66;101300.16;5184360;28;20045;-77
2022/07/28 00:51:44;;;;;;;;;;;;;;;18.85;41.51;101300.22;5203475;28;20607;-77
2022/07/28 00:54:17;;;;;;;0.50;0.50;;;;;;;18.84;43.23;101293.19;5190038;28;19944;-77
2022/07/28 00:56:47;;;;;;;0.30;0.30;;;;;;;18.81;41.99;101297.81;5187603;28;20042;-77
2022/07/28 00:59:18;;;;;;;0.40;0.40;;;;;;;18.82;41.86;101299.53;5185652;28;20048;-77
2022/07/28 01:01:53;;;;;;;0.40;0.40;;;;;;;18.79;41.55;101292.59;5169747;28;20127;-78
2022/07/28 01:04:24;;;;;;;0.40;0.40;;;;;;;18.79;41.44;101295.25;5170083;28;20171;-78
2022/07/28 01:07:07;;;;;;;3.65;1.05;;;;;;;18.76;41.62;101295.41;5154433;28;20033;-78
2022/07/28 01:09:49;;;;;;;0.22;0.22;;;;;;;18.75;41.70;101306.97;5188588;28;20025;-78
2022/07/28 01:12:36;;;;;;;0.40;0.40;;;;;;;18.72;41.83;101302.69;5186794;28;20026;-77
2022/07/28 01:15:10;;;;;;;0.50;0.50;;;;;;;18.69;41.86;101294.00;5186933;28;20062;-78
2022/07/28 01:18:11;;;;;;;0.50;0.50;;;;;;;18.66;42.10;101299.47;5154453;28;20029;-78
2022/07/28 01:20:53;;;;;;;0.10;0.10;;;;;;;18.66;42.05;101294.16;5154993;28;20545;-77
2022/07/28 01:23:32;;;;;;;0.20;0.20;;;;;;;18.62;42.34;101308.56;5188192;28;20037;-77
2022/07/28 01:26:21;;;;;;;1.00;0.68;;;;;;;18.61;42.13;101301.50;5154897;28;20046;-78
2022/07/28 01:29:07;;;;;;;0.20;0.20;;;;;;;18.59;42.37;101292.75;5156590;28;20091;-77
2022/07/28 01:31:53;;;;;;;0.82;0.82;;;;;;;18.57;42.29;101290.19;5154306;28;20750;-77
2022/07/28 01:34:32;;;;;;;0.20;0.20;;;;;;;18.51;42.64;101286.03;5153906;28;20034;-77
2022/07/28 01:37:08;;;;;;;0.20;0.20;;;;;;;18.51;42.82;101288.69;5169234;28;20081;-77
2022/07/28 01:39:42;;;;;;;0.20;0.20;;;;;;;18.50;42.64;101286.97;5147547;28;20050;-78
2022/07/28 01:42:16;;;;;;;1.45;1.10;;;;;;;18.48;42.97;101280.03;5179003;28;20037;-77
2022/07/28 01:44:49;;;;;;;0.40;0.35;;;;;;;18.48;42.35;101283.53;5210982;28;20032;-77
2022/07/28 01:47:22;;;;;;;1.25;1.15;;;;;;;18.49;42.52;101279.94;5187936;28;20388;-77
2022/07/28 01:49:55;;;;;;;0.47;0.47;;;;;;;18.41;43.39;101279.47;5169787;28;20049;-77
2022/07/28 01:52:28;;;;;;;4.80;0.35;;;;;;;18.41;43.01;101279.47;5146343;28;20056;-77
2022/07/28 01:55:02;;;;;;;0.40;0.40;;;;;;;18.39;42.83;101265.41;5153483;28;20085;-77
2022/07/28 01:57:36;;;;;;;2.03;0.68;;;;;;;18.37;43.39;101272.63;5162076;28;20625;-77
2022/07/28 02:00:12;;;;;;;0.30;0.30;;;;;;;18.36;43.17;101271.75;5174241;28;20080;-77
2022/07/28 02:02:46;;;;;;;0.20;0.20;;;;;;;18.37;42.79;101277.94;5136904;28;20041;-77
2022/07/28 02:05:18;;;;;;;;;;;;;;;18.36;43.11;101273.56;5169152;28;20118;-78
2022/07/28 02:07:51;;;;;;;0.57;0.57;;;;;;;18.32;43.22;101269.31;5135434;28;20111;-78
2022/07/28 02:10:24;;;;;;;0.77;0.77;;;;;;;18.30;43.14;101268.56;5167325;28;20049;-77
2022/07/28 02:13:00;;;;;;;0.20;0.20;;;;;;;18.23;43.72;101260.88;5185017;28;20387;-77
2022/07/28 02:15:36;;;;;;;0.30;0.30;;;;;;;18.25;43.07;101259.00;5185758;28;20053;-77
2022/07/28 02:18:09;;;;;;;0.30;0.30;;;;;;;18.21;44.11;101262.78;5174305;28;20029;-77
2022/07/28 02:20:40;;;;;;;0.47;0.47;;;;;;;18.21;43.93;101257.47;5189246;28;20042;-77
2022/07/28 02:23:13;;;;;;;0.20;0.20;;;;;;;18.20;43.21;101255.75;5172521;28;20361;-78
2022/07/28 02:25:49;;;;;;;0.60;0.60;;;;;;;18.11;43.93;101252.66;5173328;28;20108;-78
2022/07/28 02:28:22;;;;;;;0.20;0.20;;;;;;;18.14;43.21;101255.19;5175006;28;20030;-78
2022/07/28 02:31:23;;;;;;;1.75;0.95;;;;;;;18.13;43.84;101254.34;5186857;28;20046;-79
2022/07/28 02:33:58;;;;;;;0.32;0.32;;;;;;;18.12;43.50;101257.94;5136642;28;20038;-78
2022/07/28 02:36:33;;;;;;;8.20;0.88;;;;;;;18.11;43.48;101253.53;5168787;28;20085;-78
2022/07/28 02:39:07;;;;;;;1.27;1.17;;;;;;;18.09;43.40;101252.75;5173067;28;20026;-78
2022/07/28 02:41:41;;;;;;;2.55;0.38;;;;;;;17.99;44.76;101247.06;5168762;28;20046;-78
2022/07/28 02:44:16;;;;;;;0.55;0.32;;;;;;;18.03;43.72;101247.75;5248166;22;20249;-78
2022/07/28 02:46:50;;;;;;;0.20;0.20;;;;;;;18.01;43.99;101239.00;5211095;28;20299;-77
2022/07/28 02:49:27;;;;;;;0.30;0.30;;;;;;;18.00;43.83;101240.81;5209317;28;20175;-78
2022/07/28 02:51:59;;;;;;;0.43;0.43;;;;;;;17.98;43.74;101236.50;5210108;28;20037;-78
2022/07/28 02:54:31;;;;;;;0.47;0.47;;;;;;;17.95;43.80;101237.47;5191650;28;20493;-78
2022/07/28 02:57:07;;;;;;;0.53;0.53;;;;;;;17.88;44.96;101236.06;5215211;23;20041;-80
2022/07/28 02:59:39;;;;;;;0.35;0.35;;;;;;;17.85;44.36;101234.44;5216318;28;20032;-80
2022/07/28 03:02:13;;;;;;;0.20;0.20;;;;;;;17.83;44.25;101231.00;5193797;28;20043;-81
2022/07/28 03:05:13;;;;;;;;;;;;;;;;;;;;;
2022/07/28 03:08:02;;;;;;;0.60;0.60;;;;;;;17.81;44.04;101232.00;5207134;28;20039;-80
2022/07/28 03:13:33;;;;;;;0.20;0.20;;;;;;;17.74;44.12;101220.81;5220909;28;20136;-81
2022/07/28 03:16:04;;;;;;;0.20;0.20;;;;;;;17.69;45.08;101229.00;5194660;28;20116;-80
2022/07/28 03:18:37;;;;;;;0.40;0.40;;;;;;;17.68;44.61;101234.41;5200840;28;20040;-80
2022/07/28 03:21:08;;;;;;;0.75;0.75;;;;;;;17.67;44.49;101238.00;5210613;28;20055;-80
2022/07/28 03:23:41;;;;;;;0.45;0.45;;;;;;;17.62;44.51;101232.91;5194087;28;20043;-81
2022/07/28 03:26:18;;;;;;;0.30;0.30;;;;;;;17.65;44.25;101234.53;5189029;28;20029;-80
2022/07/28 03:28:51;;;;;;;0.20;0.20;;;;;;;17.60;44.33;101233.00;5210177;28;20728;-81
2022/07/28 03:31:27;;;;;;;0.20;0.20;;;;;;;17.53;44.67;101236.00;5207378;28;20432;-80
2022/07/28 03:33:58;;;;;;;;;;;;;;;17.50;44.94;101244.97;5213764;28;20186;-80
2022/07/28 03:36:38;;;;;;;0.20;0.20;;;;;;;17.51;44.71;101241.38;5209797;28;20008;-81
2022/07/28 03:39:10;;;;;;;0.47;0.47;;;;;;;17.49;45.16;101242.41;5213132;28;20082;-80
2022/07/28 03:41:45;;;;;;;0.45;0.45;;;;;;;17.45;45.12;101247.00;5208879;28;20037;-80
2022/07/28 03:44:17;;;;;;;0.63;0.63;;;;;;;17.44;46.14;101246.13;5213747;28;20057;-80
2022/07/28 03:46:48;;;;;;;3.55;0.80;;;;;;;17.46;44.23;101246.91;5206722;28;20059;-80
2022/07/28 03:49:18;;;;;;;0.25;0.25;;;;;;;17.41;44.50;101256.00;5202901;28;20477;-81
2022/07/28 03:51:49;;;;;;;0.20;0.20;;;;;;;17.40;44.63;101265.78;5194725;28;20101;-81
2022/07/28 03:54:19;;;;;;;0.35;0.35;;;;;;;17.34;45.54;101259.88;5203735;28;20025;-82
2022/07/28 03:56:51;;;;;;;0.20;0.20;;;;;;;17.33;45.24;101244.91;5201191;28;20041;-81
2022/07/28 03:59:24;;;;;;;0.20;0.20;;;;;;;17.30;44.95;101238.84;5216473;28;20035;-81
2022/07/28 04:01:55;;;;;;;0.32;0.32;;;;;;;17.25;45.20;101240.81;5204236;28;20067;-80
2022/07/28 04:04:25;;;;;;;0.20;0.20;;;;;;;17.23;45.32;101233.88;5191593;28;20492;-81
2022/07/28 04:06:56;;;;;;;0.20;0.20;;;;;;;17.18;45.96;101236.75;5206615;28;20040;-81
2022/07/28 04:09:27;;;;;;;0.73;0.73;;;;;;;17.20;45.26;101232.25;5197264;28;20036;-81
2022/07/28 04:11:57;;;;;;;0.22;0.22;;;;;;;17.18;45.35;101236.75;5186765;28;20505;-80
2022/07/28 04:14:28;;;;;;;13.30;1.73;;;;;;;17.11;47.29;101235.31;5203353;28;20033;-80
2022/07/28 04:16:58;;;;;;;0.20;0.20;;;;;;;17.08;46.80;101238.09;5187490;28;20661;-80
2022/07/28 04:19:29;;;;;;;0.20;0.20;;;;;;;17.09;45.64;101239.81;5204466;28;20544;-81
2022/07/28 04:22:00;;;;;;;0.85;0.45;;;;;;;17.10;45.46;101238.91;5208571;28;20128;-81
2022/07/28 04:24:30;;;;;;;0.20;0.20;;;;;;;17.06;45.47;101224.91;5224798;28;20040;-81
2022/07/28 04:27:01;;;;;;;0.20;0.20;;;;;;;17.04;45.85;101225.94;5225378;28;20434;-81
2022/07/28 04:29:32;;;;;;;0.40;0.40;;;;;;;17.03;45.50;101240.09;5221594;28;20041;-81
2022/07/28 04:32:03;;;;;;;0.35;0.35;;;;;;;17.01;45.66;101231.38;5226792;28;20028;-81
2022/07/28 04:34:36;;;;;;;0.22;0.22;;;;;;;16.98;45.43;101237.66;5200986;28;20037;-81
2022/07/28 04:37:08;;;;;;;0.65;0.65;;;;;;;16.99;45.28;101228.78;5210279;28;20062;-81
2022/07/28 04:39:39;;;;;;;0.30;0.30;;;;;;;16.97;45.64;101234.16;5190901;28;20036;-81
2022/07/28 04:42:10;;;;;;;0.73;0.73;;;;;;;16.96;45.45;101239.53;5226439;28;20406;-81
2022/07/28 04:44:41;;;;;;;0.20;0.20;;;;;;;16.93;45.58;101240.53;5223951;28;20042;-81
2022/07/28 04:47:12;;;;;;;0.30;0.30;;;;;;;16.93;45.29;101232.56;5244075;28;20023;-80
2022/07/28 04:49:42;;;;;;;0.55;0.55;;;;;;;16.88;46.07;101237.22;5229589;28;20030;-81
2022/07/28 04:52:14;;;;;;;0.35;0.35;;;;;;;16.87;46.39;101238.13;5193684;28;20548;-81
2022/07/28 04:54:45;;;;;;;0.25;0.25;;;;;;;16.86;45.77;101233.75;5206151;28;20032;-82
2022/07/28 04:57:15;;;;;;;0.90;0.77;;;;;;;16.86;45.45;101235.56;5226662;28;20047;-81
2022/07/28 04:59:49;;;;;;;0.43;0.43;;;;;;;16.86;45.53;101233.75;5206013;28;20087;-81
2022/07/28 05:02:20;;;;;;;0.20;0.20;;;;;;;16.85;45.91;101242.63;5204831;28;20025;-81
2022/07/28 05:04:51;;;;;;;0.75;0.73;;;;;;;16.84;45.51;101244.44;5204503;28;21107;-82
2022/07/28 05:07:22;;;;;;;0.20;0.20;;;;;;;16.83;46.33;101244.47;5211129;28;20032;-81
2022/07/28 05:09:52;;;;;;;0.30;0.30;;;;;;;16.84;45.79;101246.22;5191740;28;20045;-81
2022/07/28 05:12:23;;;;;;;0.93;0.85;;;;;;;16.86;45.91;101243.50;5215199;28;20031;-81
2022/07/28 05:14:53;;;;;;;0.20;0.20;;;;;;;16.83;46.31;101240.06;5210906;28;20052;-81
2022/07/28 05:17:24;;;;;;;0.38;0.38;;;;;;;16.83;46.22;101239.19;5209201;28;20107;-81
2022/07/28 05:19:57;;;;;;;0.30;0.30;;;;;;;16.81;46.55;101239.25;5223539;28;20040;-81
2022/07/28 05:22:29;;;;;;;0.20;0.20;;;;;;;16.81;47.68;101233.13;5210784;28;20368;-82
2022/07/28 05:25:03;;;;;;;0.55;0.35;;;;;;;16.84;46.67;101240.91;5224890;28;20064;-81
2022/07/28 05:27:34;;;;;;;0.20;0.20;;;;;;;16.80;48.33;101234.03;5214326;28;20096;-81
2022/07/28 05:30:08;;;;;;;4.43;1.50;;;;;;;16.81;47.04;101239.25;5206900;28;20043;-82
2022/07/28 05:32:40;;;;;;;0.25;0.25;;;;;;;16.84;47.78;101238.25;5194996;28;20052;-81
2022/07/28 05:35:11;;;;;;;0.30;0.30;;;;;;;16.83;48.51;101239.19;5212161;28;20049;-82
2022/07/28 05:37:50;;;;;;;0.20;0.20;;;;;;;16.83;47.51;101229.47;5211842;28;20462;-82
2022/07/28 05:40:21;;;;;;;0.90;0.75;;;;;;;16.88;48.20;101237.22;5229277;28;20451;-82
2022/07/28 05:42:51;;;;;;;0.30;0.30;;;;;;;16.88;47.25;101247.81;5204194;28;20055;-82
2022/07/28 05:45:22;;;;;;;4.63;1.15;;;;;;;16.85;49.08;101242.63;5202318;28;20120;-82
2022/07/28 05:47:53;;;;;;;0.30;0.30;;;;;;;16.87;47.95;101246.09;5175662;28;20485;-82
2022/07/28 05:50:24;;;;;;;0.30;0.30;;;;;;;16.90;48.01;101235.31;5209904;28;20530;-82
2022/07/28 05:52:55;;;;;;;0.47;0.47;;;;;;;16.93;47.88;101239.69;5218249;28;20026;-82
2022/07/28 05:55:26;;;;;;;0.50;0.50;;;;;;;16.94;47.94;101247.56;5200649;28;20439;-82
2022/07/28 05:57:58;;;;;;;10.98;1.55;;;;;;;16.90;48.90;101234.47;5215020;28;20064;-82
2022/07/28 06:00:33;;;;;;;0.30;0.30;;;;;;;16.90;48.54;101240.63;5208433;28;20341;-81
2022/07/28 06:03:04;;;;;;;0.20;0.20;;;;;;;16.95;48.68;101249.28;5211548;28;20540;-81
2022/07/28 06:05:36;;;;;;;1.25;0.73;;;;;;;16.98;49.05;101238.50;5193055;28;20055;-82
2022/07/28 06:08:13;;;;;;;0.40;0.40;;;;;;;17.02;49.09;101238.38;5208024;28;20119;-82
2022/07/28 06:11:00;;;;;;;0.30;0.30;;;;;;;17.04;48.28;101236.53;5186389;28;20052;-81
2022/07/28 06:13:31;;;;;;;0.52;0.52;;;;;;;17.05;49.15;101232.97;5188088;28;20490;-81
2022/07/28 06:16:04;;;;;;;0.35;0.35;;;;;;;16.94;49.93;101231.66;5191670;28;20045;-82
2022/07/28 06:18:42;;;;;;;0.60;0.60;;;;;;;17.05;48.82;101239.09;5237238;28;20666;-81
2022/07/28 06:21:13;;;;;;;0.30;0.30;;;;;;;17.05;50.32;101243.56;5209002;28;20095;-81
2022/07/28 06:23:47;;;;;;;0.40;0.40;;;;;;;17.08;49.41;101240.75;5225891;28;20040;-81
2022/07/28 06:26:19;;;;;;;0.40;0.40;;;;;;;17.15;49.04;101242.19;5224704;28;20673;-82
2022/07/28 06:28:50;;;;;;;0.20;0.20;;;;;;;17.13;49.00;101242.25;5211624;28;20194;-82
2022/07/28 06:31:21;;;;;;;0.57;0.57;;;;;;;17.20;48.91;101237.53;5212326;28;20111;-81
2022/07/28 06:33:52;;;;;;;2.92;1.13;;;;;;;17.18;50.46;101239.41;5173984;28;20041;-81
2022/07/28 06:36:23;;;;;;;1.45;1.05;;;;;;;17.24;49.36;101235.59;5210443;28;20075;-82
2022/07/28 06:38:54;;;;;;;0.20;0.20;;;;;;;17.24;48.96;101233.78;5169630;28;20107;-82
2022/07/28 06:41:27;;;;;;;0.22;0.22;;;;;;;17.29;49.15;101242.41;5188949;28;20580;-82
2022/07/28 06:44:00;;;;;;;0.20;0.20;;;;;;;17.29;48.96;101241.53;5205807;28;20080;-82
2022/07/28 06:46:37;;;;;;;0.50;0.50;;;;;;;17.35;50.96;101241.28;5191830;28;20037;-81
2022/07/28 06:49:11;;;;;;;0.28;0.28;;;;;;;17.34;49.14;101241.31;5211639;28;20111;-81
2022/07/28 06:51:44;;;;;;;0.20;0.20;;;;;;;17.36;49.70;101242.13;5189718;28;20041;-81
2022/07/28 06:54:16;;;;;;;0.28;0.28;;;;;;;17.39;49.88;101244.63;5212749;28;20032;-82
2022/07/28 06:56:46;;;;;;;0.20;0.20;;;;;;;17.45;49.08;101242.53;5224348;28;20055;-81
2022/07/28 06:59:17;;;;;;;0.30;0.30;;;;;;;17.51;50.52;101240.53;5212921;28;20029;-82
2022/07/28 07:01:47;;;;;;;4.55;0.95;;;;;;;17.56;49.54;101242.00;5186268;28;20080;-82
2022/07/28 07:04:18;;;;;;;0.57;0.57;;;;;;;17.56;49.36;101234.06;5174706;28;20136;-81
2022/07/28 07:06:50;;;;;;;0.28;0.28;;;;;;;17.59;49.29;101244.53;5200469;28;20041;-80
2022/07/28 07:09:21;;;;;;;0.30;0.30;;;;;;;17.61;49.47;101234.72;5215779;28;20502;-81
2022/07/28 07:11:57;;;;;;;0.30;0.30;;;;;;;17.68;49.90;101229.09;5187722;28;20075;-82
2022/07/28 07:14:34;;;;;;;1.10;1.10;;;;;;;17.71;49.43;101231.63;5204791;28;20031;-82
2022/07/28 07:17:11;;;;;;;;;;;;;;;17.75;50.26;101238.47;5199278;28;20097;-81
2022/07/28 07:19:44;;;;;;;0.40;0.40;;;;;;;17.73;50.27;101229.72;5183558;28;19974;-83
2022/07/28 07:22:15;;;;;;;0.93;0.90;;;;;;;17.78;49.56;101239.19;5201643;28;20024;-81
2022/07/28 07:24:46;;;;;;;0.28;0.28;;;;;;;17.73;50.62;101235.03;5211964;28;20028;-82
2022/07/28 07:27:17;;;;;;;0.20;0.20;;;;;;;17.79;49.89;101234.75;5203638;28;20035;-81
2022/07/28 07:29:48;;;;;;;0.20;0.20;;;;;;;17.81;50.64;101230.19;5200874;28;20021;-82
2022/07/28 07:32:18;;;;;;;0.57;0.57;;;;;;;17.81;50.30;101232.84;5209465;28;20032;-81
2022/07/28 07:34:49;;;;;;;1.50;0.70;;;;;;;17.80;50.62;101223.19;5207391;28;21031;-82
2022/07/28 07:37:23;;;;;;;0.20;0.20;;;;;;;17.89;50.31;101241.28;5207082;28;20101;-81
2022/07/28 07:39:54;;;;;;;0.45;0.45;;;;;;;17.92;49.62;101229.69;5191351;28;20040;-82
2022/07/28 07:42:25;;;;;;;0.20;0.20;;;;;;;17.93;50.08;101226.94;5215024;28;20032;-81
2022/07/28 07:44:56;;;;;;;6.13;0.40;;;;;;;18.05;49.95;101222.00;5228789;28;20032;-81
2022/07/28 07:47:26;;;;;;;0.77;0.38;;;;;;;18.02;50.20;101230.13;5229221;28;20381;-81
2022/07/28 07:49:57;;;;;;;0.35;0.35;;;;;;;18.00;50.94;101224.00;5208780;28;20408;-81
2022/07/28 07:52:27;;;;;;;0.25;0.25;;;;;;;18.04;49.65;101207.84;5193175;28;20017;-81
2022/07/28 07:54:58;;;;;;;0.90;0.52;;;;;;;18.12;49.84;101218.09;5192024;28;20574;-81
2022/07/28 07:57:29;;;;;;;1.95;1.25;;;;;;;18.20;49.75;101218.56;5212943;28;20044;-81
2022/07/28 07:59:59;;;;;;;0.75;0.50;;;;;;;18.21;49.76;101214.97;5188143;28;20070;-80
2022/07/28 08:02:30;;;;;;;0.63;0.45;;;;;;;18.30;49.67;101218.09;5207102;28;20165;-80
2022/07/28 08:05:00;;;;;;;0.35;0.35;;;;;;;18.32;49.68;101210.88;5169856;28;20041;-81
2022/07/28 08:07:31;;;;;;;0.43;0.40;;;;;;;18.36;49.48;101215.09;5207821;28;20087;-81
2022/07/28 08:10:06;;;;;;;0.32;0.32;;;;;;;18.39;49.34;101209.63;5192576;28;20129;-82
2022/07/28 08:12:37;;;;;;;0.70;0.70;;;;;;;18.41;49.36;101215.72;5197079;28;20096;-82
2022/07/28 08:15:08;;;;;;;0.28;0.28;;;;;;;18.46;50.25;101208.38;5185028;28;20094;-82
2022/07/28 08:17:39;;;;;;;3.13;0.98;;;;;;;18.52;49.28;101202.75;5213606;28;20025;-81
2022/07/28 08:20:10;;;;;;;0.40;0.40;;;;;;;18.54;49.95;101207.97;5205326;28;20120;-81
2022/07/28 08:22:54;;;;;;;0.57;0.57;;;;;;;18.57;49.31;101199.84;5191702;28;20139;-81
2022/07/28 08:25:26;;;;;;;1.08;0.73;;;;;;;18.71;49.25;101193.78;5179529;28;20139;-82
2022/07/28 08:27:56;;;;;;;1.98;1.15;;;;;;;18.66;49.93;101195.81;5167768;28;20364;-82
2022/07/28 08:30:27;;;;;;;0.40;0.40;;;;;;;18.70;49.26;101189.41;5170406;28;20041;-82
2022/07/28 08:32:57;;;;;;;0.60;0.60;;;;;;;18.79;49.18;101180.94;5195002;28;20032;-81
2022/07/28 08:35:28;;;;;;;0.30;0.30;;;;;;;18.78;48.75;101186.31;5167682;28;20041;-82
2022/07/28 08:37:59;;;;;;;0.30;0.30;;;;;;;18.81;48.88;101184.34;5170632;28;20469;-82
2022/07/28 08:40:34;;;;;;;0.20;0.20;;;;;;;18.85;48.54;101174.41;5200959;28;20049;-82
2022/07/28 08:43:32;;;;;;;0.35;0.35;;;;;;;18.89;48.37;101173.31;5170659;28;20614;-82
2022/07/28 08:46:15;;;;;;;0.43;0.43;;;;;;;18.92;48.13;101177.59;5186109;28;20051;-81
2022/07/28 08:48:47;;;;;;;0.10;0.10;;;;;;;18.97;48.29;101180.88;5207093;28;22750;-82
2022/07/28 08:51:19;;;;;;;0.20;0.20;;;;;;;19.03;48.16;101181.41;5208358;28;20044;-81
2022/07/28 08:53:51;;;;;;;0.47;0.47;;;;;;;19.03;48.11;101172.59;5184427;28;20109;-81
2022/07/28 08:56:23;;;;;;;0.30;0.30;;;;;;;19.09;48.04;101180.22;5196088;28;20063;-81
2022/07/28 08:58:56;;;;;;;0.43;0.43;;;;;;;19.13;47.68;101178.25;5210498;28;20036;-81
2022/07/28 09:01:26;;;;;;;0.20;0.20;;;;;;;19.21;47.62;101183.16;5196052;28;20182;-82
2022/07/28 09:03:58;;;;;;;0.47;0.47;;;;;;;19.24;47.13;101185.63;5173694;28;20096;-82
2022/07/28 09:06:30;;;;;;;1.05;0.85;;;;;;;19.24;47.11;101182.94;5175165;28;20038;-82
2022/07/28 09:09:11;;;;;;;0.40;0.40;;;;;;;19.31;47.12;101190.50;5185985;28;20013;-82
2022/07/28 09:11:41;;;;;;;0.40;0.40;;;;;;;19.37;47.05;101189.31;5187839;28;20068;-81
2022/07/28 09:14:12;;;;;;;0.40;0.40;;;;;;;19.44;46.97;101177.38;5217419;28;20456;-81
2022/07/28 09:16:46;;;;;;;6.20;0.75;;;;;;;19.47;46.78;101184.31;5202147;28;20041;-81
2022/07/28 09:19:16;;;;;;;0.50;0.50;;;;;;;19.42;46.76;101176.59;5174352;28;20422;-82
2022/07/28 09:21:47;;;;;;;0.30;0.30;;;;;;;19.48;46.60;101176.22;5227881;28;20056;-81
2022/07/28 09:24:40;;;;;;;0.75;0.60;;;;;;;19.54;46.63;101174.19;5204702;28;20041;-81
2022/07/28 09:27:12;;;;;;;1.25;1.15;;;;;;;19.60;45.96;101176.47;5231129;28;20130;-81
2022/07/28 09:29:46;;;;;;;0.30;0.30;;;;;;;19.59;45.89;101174.75;5189245;28;20033;-81
2022/07/28 09:32:18;;;;;;;0.20;0.20;;;;;;;19.67;45.43;101173.34;5209316;28;20691;-80
2022/07/28 09:34:49;;;;;;;0.20;0.20;;;;;;;19.72;45.66;101167.75;5225044;28;20033;-82
2022/07/28 09:37:24;;;;;;;0.30;0.30;;;;;;;19.85;45.71;101159.09;5193581;28;20043;-81
2022/07/28 09:39:59;;;;;;;1.95;0.90;;;;;;;19.82;46.01;101152.13;5208449;28;20438;-83
2022/07/28 09:42:45;;;;;;;0.20;0.20;;;;;;;19.95;45.42;101149.63;5213104;28;20045;-81
2022/07/28 09:45:25;;;;;;;0.20;0.20;;;;;;;19.96;45.39;101146.00;5211767;28;20054;-81
2022/07/28 09:48:11;;;;;;;0.22;0.22;;;;;;;20.11;45.07;101141.56;5215060;28;20193;-82
2022/07/28 09:50:42;;;;;;;0.50;0.50;;;;;;;20.16;45.34;101149.25;5186442;28;20437;-81
2022/07/28 09:53:40;;;;;;;0.20;0.20;;;;;;;20.21;44.47;101141.84;5191228;28;20566;-81
2022/07/28 09:56:11;;;;;;;0.25;0.25;;;;;;;20.29;44.90;101140.44;5175810;28;20052;-83
2022/07/28 09:58:54;;;;;;;0.20;0.20;;;;;;;20.34;43.64;101142.81;5206657;28;20049;-84
2022/07/28 10:01:25;;;;;;;0.10;0.10;;;;;;;20.44;43.17;101135.97;5195430;28;20038;-83
2022/07/28 10:04:00;;;;;;;0.20;0.20;;;;;;;20.42;44.02;101140.53;5179637;28;20473;-84
2022/07/28 10:06:33;;;;;;;0.20;0.20;;;;;;;20.46;44.20;101135.88;5175643;28;20092;-83
2022/07/28 10:09:13;;;;;;;0.35;0.35;;;;;;;20.50;43.75;101141.88;5172853;28;20061;-85
2022/07/28 10:11:43;;;;;;;0.20;0.20;;;;;;;20.58;43.41;101139.56;5164823;28;20116;-82
2022/07/28 10:14:15;;;;;;;0.20;0.20;;;;;;;20.55;42.91;101135.28;5166904;28;20125;-83
2022/07/28 10:16:51;;;;;;;0.15;0.15;;;;;;;20.66;43.22;101121.28;5195102;28;20067;-82
2022/07/28 10:19:23;;;;;;;0.30;0.30;;;;;;;20.81;43.06;101119.50;5210970;28;20017;-83
2022/07/28 10:21:56;;;;;;;0.28;0.28;;;;;;;20.73;42.59;101117.31;5203648;28;20044;-82
2022/07/28 10:24:30;;;;;;;;;;;;;;;20.84;42.54;101113.09;5196115;28;20166;-82
2022/07/28 10:27:04;;;;;;;0.20;0.20;;;;;;;20.88;41.85;101109.25;5194576;28;20325;-83
2022/07/28 10:29:38;;;;;;;0.40;0.40;;;;;;;20.92;43.08;101116.97;5212046;28;20045;-82
2022/07/28 10:32:09;;;;;;;0.50;0.30;;;;;;;20.96;43.00;101111.44;5245723;28;20157;-82
2022/07/28 10:34:45;;;;;;;0.30;0.20;;;;;;;21.00;43.20;101103.16;5213295;28;20052;-80
2022/07/28 10:37:22;;;;;;;0.50;0.50;;;;;;;21.09;42.02;101104.34;5204286;28;20021;-81
2022/07/28 10:40:11;;;;;;;0.20;0.20;;;;;;;21.11;41.90;101101.59;5208884;28;20047;-80
2022/07/28 10:42:42;;;;;;;0.32;0.30;;;;;;;21.11;41.38;101093.59;5226039;28;20217;-80
2022/07/28 10:45:14;;;;;;;0.20;0.20;;;;;;;21.17;42.10;101099.38;5198232;28;20155;-84
2022/07/28 10:47:45;;;;;;;0.20;0.20;;;;;;;21.23;42.51;101109.66;5219565;28;20489;-84
2022/07/28 10:50:17;;;;;;;1.48;0.85;;;;;;;21.32;41.07;101100.16;5199875;28;20037;-84
2022/07/28 10:52:52;;;;;;;1.08;0.65;;;;;;;21.33;42.13;101095.69;5194137;28;20435;-84
2022/07/28 10:55:38;;;;;;;1.17;0.73;;;;;;;21.28;41.41;101090.66;5211668;28;20076;-82
2022/07/28 10:58:39;;;;;;;0.43;0.43;;;;;;;21.44;41.76;101094.97;5207994;28;20044;-84
2022/07/28 11:01:31;;;;;;;1.35;0.77;;;;;;;21.53;41.26;101089.88;5165592;28;20069;-80
2022/07/28 11:04:29;;;;;;;1.70;1.40;;;;;;;21.61;41.68;101092.03;5195734;28;20029;-79
2022/07/28 11:07:12;;;;;;;1.35;0.63;;;;;;;21.61;41.83;101089.34;5213432;28;20036;-81
2022/07/28 11:09:48;;;;;;;0.20;0.20;;;;;;;21.63;41.25;101082.09;5219953;28;20104;-81
2022/07/28 11:12:48;;;;;;;0.30;0.30;;;;;;;21.74;41.00;101085.88;5187174;28;20040;-80
2022/07/28 11:15:36;;;;;;;0.30;0.30;;;;;;;21.75;41.47;101084.91;5175329;28;20037;-80
2022/07/28 11:18:08;;;;;;;0.20;0.20;;;;;;;21.93;41.41;101089.00;5172176;28;20524;-80
2022/07/28 11:20:57;;;;;;;0.98;0.63;;;;;;;21.96;41.43;101085.25;5161954;28;20084;-80
2022/07/28 11:23:45;;;;;;;0.20;0.20;;;;;;;22.04;41.32;101082.03;5187797;28;20050;-82
2022/07/28 11:26:26;;;;;;;0.40;0.40;;;;;;;22.07;41.19;101079.16;5186322;28;20371;-82
2022/07/28 11:29:02;;;;;;;0.20;0.20;;;;;;;22.15;41.45;101076.78;5189400;28;20044;-81
2022/07/28 11:31:50;;;;;;;0.30;0.30;;;;;;;22.27;39.54;101083.09;5173488;28;20637;-81
2022/07/28 11:34:23;;;;;;;0.47;0.45;;;;;;;22.28;40.64;101074.94;5156083;28;20050;-80
2022/07/28 11:37:08;;;;;;;;;;;;;;;22.38;40.59;101074.28;5176140;28;20124;-80
2022/07/28 11:39:53;;;;;;;0.22;0.22;;;;;;;22.48;40.53;101059.34;5167683;28;19931;-81
2022/07/28 11:42:28;;;;;;;0.52;0.52;;;;;;;22.53;40.03;101062.53;5169359;28;20022;-81
2022/07/28 11:45:22;;;;;;;0.30;0.30;;;;;;;22.62;40.67;101059.19;5169436;28;20048;-80
2022/07/28 11:48:12;;;;;;;0.47;0.47;;;;;;;22.77;40.64;101059.03;5168527;28;20481;-82
2022/07/28 11:51:01;;;;;;;0.20;0.20;;;;;;;22.94;38.90;101055.97;5186248;28;20068;-81
2022/07/28 11:53:41;;;;;;;0.70;0.60;;;;;;;22.98;39.67;101050.38;5192533;28;20068;-83
2022/07/28 11:56:13;;;;;;;0.30;0.30;;;;;;;23.07;39.32;101047.03;5169897;28;20111;-81
2022/07/28 11:58:54;;;;;;;;;;;;;;;23.14;39.57;101045.59;5185862;28;20037;-81
2022/07/28 12:01:33;;;;;;;0.20;0.20;;;;;;;23.28;40.08;101039.25;5170533;28;19917;-81
2022/07/28 12:04:10;;;;;;;0.30;0.30;;;;;;;23.43;39.93;101042.53;5170894;28;20056;-81
2022/07/28 12:06:42;;;;;;;0.63;0.63;;;;;;;23.41;39.18;101044.50;5185302;28;20038;-81
2022/07/28 12:09:12;;;;;;;0.57;0.57;;;;;;;23.58;38.96;101041.41;5170613;28;20037;-81